sensor_id;sensor_type;location;lat;lon;timestamp;pressure;altitude;pressure_sealevel;temperature;humidity
75767;BME280;64378;55.596;13.014;2023-02-15T00:00:11;103105.78;;;19.84;33.20
75767;BME280;64378;55.596;13.014;2023-02-15T00:02:37;103099.25;;;19.85;33.16
75767;BME280;64378;55.596;13.014;2023-02-15T00:05:03;103100.31;;;19.84;33.21
75767;BME280;64378;55.596;13.014;2023-02-15T00:07:28;103092.94;;;19.85;33.31
75767;BME280;64378;55.596;13.014;2023-02-15T00:09:53;103089.16;;;19.86;33.35
75767;BME280;64378;55.596;13.014;2023-02-15T00:12:19;103084.72;;;19.85;33.30
75767;BME280;64378;55.596;13.014;2023-02-15T00:14:44;103091.91;;;19.86;33.60
75767;BME280;64378;55.596;13.014;2023-02-15T00:17:10;103089.16;;;19.86;33.48
75767;BME280;64378;55.596;13.014;2023-02-15T00:19:35;103085.56;;;19.85;33.48
75767;BME280;64378;55.596;13.014;2023-02-15T00:22:01;103080.09;;;19.85;33.66
75767;BME280;64378;55.596;13.014;2023-02-15T00:24:26;103085.38;;;19.87;33.42
75767;BME280;64378;55.596;13.014;2023-02-15T00:26:52;103069.75;;;19.81;33.48
75767;BME280;64378;55.596;13.014;2023-02-15T00:29:18;103077.34;;;19.85;33.48
75767;BME280;64378;55.596;13.014;2023-02-15T00:31:43;103073.56;;;19.86;33.17
75767;BME280;64378;55.596;13.014;2023-02-15T00:34:17;103077.34;;;19.85;33.39
75767;BME280;64378;55.596;13.014;2023-02-15T00:36:43;103083.69;;;19.86;33.52
75767;BME280;64378;55.596;13.014;2023-02-15T00:39:09;103070.16;;;19.84;33.54
75767;BME280;64378;55.596;13.014;2023-02-15T00:41:35;103072.91;;;19.84;33.71
75767;BME280;64378;55.596;13.014;2023-02-15T00:44:01;103066.59;;;19.84;33.58
75767;BME280;64378;55.596;13.014;2023-02-15T00:46:26;103064.69;;;19.84;33.74
75767;BME280;64378;55.596;13.014;2023-02-15T00:48:52;103057.53;;;19.83;33.58
75767;BME280;64378;55.596;13.014;2023-02-15T00:51:17;103061.13;;;19.84;33.55
75767;BME280;64378;55.596;13.014;2023-02-15T00:53:43;103056.69;;;19.83;33.75
75767;BME280;64378;55.596;13.014;2023-02-15T00:56:10;103063.88;;;19.84;33.94
75767;BME280;64378;55.596;13.014;2023-02-15T00:58:35;103061.13;;;19.84;33.96
75767;BME280;64378;55.596;13.014;2023-02-15T01:01:06;103058.38;;;19.84;34.07
75767;BME280;64378;55.596;13.014;2023-02-15T01:03:32;103048.47;;;19.83;33.93
75767;BME280;64378;55.596;13.014;2023-02-15T01:05:57;103046.56;;;19.83;33.79
75767;BME280;64378;55.596;13.014;2023-02-15T01:08:23;103054.59;;;19.85;33.70
75767;BME280;64378;55.596;13.014;2023-02-15T01:10:48;103053.72;;;19.84;33.88
75767;BME280;64378;55.596;13.014;2023-02-15T01:13:15;103060.06;;;19.85;33.64
75767;BME280;64378;55.596;13.014;2023-02-15T01:15:42;103052.91;;;19.84;33.89
75767;BME280;64378;55.596;13.014;2023-02-15T01:18:08;103049.13;;;19.85;33.91
75767;BME280;64378;55.596;13.014;2023-02-15T01:20:36;103046.38;;;19.85;33.93
75767;BME280;64378;55.596;13.014;2023-02-15T01:23:04;103047.41;;;19.84;34.03
75767;BME280;64378;55.596;13.014;2023-02-15T01:25:30;103040.91;;;19.85;33.87
75767;BME280;64378;55.596;13.014;2023-02-15T01:27:55;103036.25;;;19.85;33.85
75767;BME280;64378;55.596;13.014;2023-02-15T01:30:21;103032.03;;;19.83;34.08
75767;BME280;64378;55.596;13.014;2023-02-15T01:32:46;103032.69;;;19.85;33.79
75767;BME280;64378;55.596;13.014;2023-02-15T01:35:12;103025.50;;;19.84;33.98
75767;BME280;64378;55.596;13.014;2023-02-15T01:37:37;103014.53;;;19.84;34.21
75767;BME280;64378;55.596;13.014;2023-02-15T01:40:05;103021.72;;;19.85;33.97
75767;BME280;64378;55.596;13.014;2023-02-15T01:42:31;103018.13;;;19.84;34.02
75767;BME280;64378;55.596;13.014;2023-02-15T01:44:59;103017.06;;;19.85;33.99
75767;BME280;64378;55.596;13.014;2023-02-15T01:50:22;103013.91;;;19.82;34.03
75767;BME280;64378;55.596;13.014;2023-02-15T01:55:35;103002.53;;;19.85;34.11
75767;BME280;64378;55.596;13.014;2023-02-15T01:58:02;103008.00;;;19.85;34.04
75767;BME280;64378;55.596;13.014;2023-02-15T02:00:28;103005.28;;;19.85;34.17
75767;BME280;64378;55.596;13.014;2023-02-15T02:02:55;103002.72;;;19.83;34.31
75767;BME280;64378;55.596;13.014;2023-02-15T02:05:22;102996.00;;;19.86;34.29
75767;BME280;64378;55.596;13.014;2023-02-15T02:07:50;102997.88;;;19.85;34.24
75767;BME280;64378;55.596;13.014;2023-02-15T02:10:19;102984.19;;;19.85;34.01
75767;BME280;64378;55.596;13.014;2023-02-15T02:12:46;102993.25;;;19.86;34.20
75767;BME280;64378;55.596;13.014;2023-02-15T02:15:14;102987.78;;;19.86;34.18
75767;BME280;64378;55.596;13.014;2023-02-15T02:18:12;102987.78;;;19.86;34.34
75767;BME280;64378;55.596;13.014;2023-02-15T02:20:54;102984.19;;;19.85;34.30
75767;BME280;64378;55.596;13.014;2023-02-15T02:34:29;102974.28;;;19.84;34.34
75767;BME280;64378;55.596;13.014;2023-02-15T02:37:23;102968.81;;;19.84;34.44
75767;BME280;64378;55.596;13.014;2023-02-15T02:45:06;102943.31;;;19.84;34.53
75767;BME280;64378;55.596;13.014;2023-02-15T02:47:49;102945.00;;;19.85;34.54
75767;BME280;64378;55.596;13.014;2023-02-15T02:50:20;102938.66;;;19.84;34.66
75767;BME280;64378;55.596;13.014;2023-02-15T02:52:51;102930.44;;;19.84;34.51
75767;BME280;64378;55.596;13.014;2023-02-15T02:55:42;102930.66;;;19.83;34.75
75767;BME280;64378;55.596;13.014;2023-02-15T02:58:32;102929.63;;;19.84;34.62
75767;BME280;64378;55.596;13.014;2023-02-15T03:01:08;102919.72;;;19.83;34.59
75767;BME280;64378;55.596;13.014;2023-02-15T03:03:54;102919.47;;;19.84;34.79
75767;BME280;64378;55.596;13.014;2023-02-15T03:06:36;102915.06;;;19.83;34.76
75767;BME280;64378;55.596;13.014;2023-02-15T03:09:45;102913.19;;;19.84;34.63
75767;BME280;64378;55.596;13.014;2023-02-15T03:12:16;102907.69;;;19.84;34.77
75767;BME280;64378;55.596;13.014;2023-02-15T03:14:44;102904.09;;;19.83;34.68
75767;BME280;64378;55.596;13.014;2023-02-15T03:17:12;102896.75;;;19.84;34.74
75767;BME280;64378;55.596;13.014;2023-02-15T03:19:40;102900.31;;;19.84;34.99
75767;BME280;64378;55.596;13.014;2023-02-15T03:22:09;102893.13;;;19.83;34.89
75767;BME280;64378;55.596;13.014;2023-02-15T03:24:51;102889.56;;;19.83;34.92
75767;BME280;64378;55.596;13.014;2023-02-15T03:27:22;102888.53;;;19.84;34.95
75767;BME280;64378;55.596;13.014;2023-02-15T03:29:53;102886.59;;;19.84;34.98
75767;BME280;64378;55.596;13.014;2023-02-15T03:32:21;102889.34;;;19.84;34.91
75767;BME280;64378;55.596;13.014;2023-02-15T03:34:47;102878.38;;;19.84;34.76
75767;BME280;64378;55.596;13.014;2023-02-15T03:40:00;102871.22;;;19.83;34.97
75767;BME280;64378;55.596;13.014;2023-02-15T03:42:49;102874.81;;;19.84;34.83
75767;BME280;64378;55.596;13.014;2023-02-15T03:45:22;102880.31;;;19.84;34.90
75767;BME280;64378;55.596;13.014;2023-02-15T03:47:50;102883.88;;;19.84;34.91
75767;BME280;64378;55.596;13.014;2023-02-15T03:50:24;102877.56;;;19.84;35.03
75767;BME280;64378;55.596;13.014;2023-02-15T03:53:13;102872.91;;;19.84;35.03
75767;BME280;64378;55.596;13.014;2023-02-15T03:55:39;102874.81;;;19.84;34.88
75767;BME280;64378;55.596;13.014;2023-02-15T03:58:05;102869.53;;;19.82;34.80
75767;BME280;64378;55.596;13.014;2023-02-15T04:00:58;102871.22;;;19.83;34.99
75767;BME280;64378;55.596;13.014;2023-02-15T04:03:48;102871.22;;;19.83;34.98
75767;BME280;64378;55.596;13.014;2023-02-15T04:06:16;102862.19;;;19.83;35.02
75767;BME280;64378;55.596;13.014;2023-02-15T04:08:42;102857.53;;;19.83;35.03
75767;BME280;64378;55.596;13.014;2023-02-15T04:11:25;102844.06;;;19.82;35.00
75767;BME280;64378;55.596;13.014;2023-02-15T04:13:51;102848.47;;;19.83;34.98
75767;BME280;64378;55.596;13.014;2023-02-15T04:16:22;102853.97;;;19.83;35.09
75767;BME280;64378;55.596;13.014;2023-02-15T04:18:48;102853.97;;;19.83;35.03
75767;BME280;64378;55.596;13.014;2023-02-15T04:21:32;102843.19;;;19.81;34.94
75767;BME280;64378;55.596;13.014;2023-02-15T04:24:16;102839.41;;;19.82;34.84
75767;BME280;64378;55.596;13.014;2023-02-15T04:27:01;102831.41;;;19.81;35.03
75767;BME280;64378;55.596;13.014;2023-02-15T04:29:28;102832.25;;;19.81;35.18
75767;BME280;64378;55.596;13.014;2023-02-15T04:31:54;102835.84;;;19.82;34.99
75767;BME280;64378;55.596;13.014;2023-02-15T04:34:20;102834.97;;;19.81;34.75
75767;BME280;64378;55.596;13.014;2023-02-15T04:36:46;102828.66;;;19.81;34.90
75767;BME280;64378;55.596;13.014;2023-02-15T04:39:15;102825.06;;;19.80;35.14
75767;BME280;64378;55.596;13.014;2023-02-15T04:41:41;102820.44;;;19.81;34.94
75767;BME280;64378;55.596;13.014;2023-02-15T04:44:06;102819.59;;;19.80;34.95
75767;BME280;64378;55.596;13.014;2023-02-15T04:46:31;102812.44;;;19.79;34.99
75767;BME280;64378;55.596;13.014;2023-02-15T04:48:57;102818.78;;;19.80;35.01
75767;BME280;64378;55.596;13.014;2023-02-15T04:51:23;102826.97;;;19.80;34.96
75767;BME280;64378;55.596;13.014;2023-02-15T04:53:48;102822.34;;;19.80;35.13
75767;BME280;64378;55.596;13.014;2023-02-15T04:56:14;102816.84;;;19.80;34.88
75767;BME280;64378;55.596;13.014;2023-02-15T04:58:40;102820.00;;;19.77;34.96
75767;BME280;64378;55.596;13.014;2023-02-15T05:01:07;102814.34;;;19.79;35.25
75767;BME280;64378;55.596;13.014;2023-02-15T05:03:32;102822.56;;;19.79;35.10
75767;BME280;64378;55.596;13.014;2023-02-15T05:05:58;102814.34;;;19.79;35.27
75767;BME280;64378;55.596;13.014;2023-02-15T05:08:23;102806.94;;;19.79;35.14
75767;BME280;64378;55.596;13.014;2023-02-15T05:10:48;102804.44;;;19.78;35.20
75767;BME280;64378;55.596;13.014;2023-02-15T05:13:14;102804.22;;;19.79;35.24
75767;BME280;64378;55.596;13.014;2023-02-15T05:15:40;102803.38;;;19.79;35.29
75767;BME280;64378;55.596;13.014;2023-02-15T05:18:05;102809.69;;;19.79;35.33
75767;BME280;64378;55.596;13.014;2023-02-15T05:20:32;102801.69;;;19.78;35.41
75767;BME280;64378;55.596;13.014;2023-02-15T05:22:57;102807.81;;;19.80;35.25
75767;BME280;64378;55.596;13.014;2023-02-15T05:25:23;102801.47;;;19.79;35.22
75767;BME280;64378;55.596;13.014;2023-02-15T05:28:10;102799.78;;;19.78;35.33
75767;BME280;64378;55.596;13.014;2023-02-15T05:30:49;102803.38;;;19.79;35.24
75767;BME280;64378;55.596;13.014;2023-02-15T05:33:15;102797.91;;;19.79;35.32
75767;BME280;64378;55.596;13.014;2023-02-15T05:35:41;102795.16;;;19.79;35.18
75767;BME280;64378;55.596;13.014;2023-02-15T05:38:06;102786.09;;;19.78;35.37
75767;BME280;64378;55.596;13.014;2023-02-15T05:40:32;102783.56;;;19.77;35.14
75767;BME280;64378;55.596;13.014;2023-02-15T05:42:57;102788.00;;;19.78;35.26
75767;BME280;64378;55.596;13.014;2023-02-15T05:45:23;102789.88;;;19.77;35.15
75767;BME280;64378;55.596;13.014;2023-02-15T05:47:48;102786.94;;;19.79;35.21
75767;BME280;64378;55.596;13.014;2023-02-15T05:50:14;102794.31;;;19.78;35.15
75767;BME280;64378;55.596;13.014;2023-02-15T05:52:39;102788.00;;;19.78;35.28
75767;BME280;64378;55.596;13.014;2023-02-15T05:55:05;102792.63;;;19.77;35.29
75767;BME280;64378;55.596;13.014;2023-02-15T05:57:31;102790.13;;;19.76;35.39
75767;BME280;64378;55.596;13.014;2023-02-15T05:59:56;102789.06;;;19.77;35.41
75767;BME280;64378;55.596;13.014;2023-02-15T06:02:22;102788.19;;;19.76;35.44
75767;BME280;64378;55.596;13.014;2023-02-15T06:04:47;102782.72;;;19.76;35.42
75767;BME280;64378;55.596;13.014;2023-02-15T06:07:13;102785.47;;;19.76;35.32
75767;BME280;64378;55.596;13.014;2023-02-15T06:09:38;102788.44;;;19.75;35.15
75767;BME280;64378;55.596;13.014;2023-02-15T06:12:04;102782.13;;;19.74;35.25
75767;BME280;64378;55.596;13.014;2023-02-15T06:14:29;102780.22;;;19.75;35.23
75767;BME280;64378;55.596;13.014;2023-02-15T06:16:54;102774.72;;;19.75;35.32
75767;BME280;64378;55.596;13.014;2023-02-15T06:19:20;102777.47;;;19.75;35.54
75767;BME280;64378;55.596;13.014;2023-02-15T06:21:46;102775.56;;;19.75;35.60
75767;BME280;64378;55.596;13.014;2023-02-15T06:24:11;102779.38;;;19.74;35.64
75767;BME280;64378;55.596;13.014;2023-02-15T06:26:37;102780.22;;;19.75;35.48
75767;BME280;64378;55.596;13.014;2023-02-15T06:29:02;102778.28;;;19.75;35.51
75767;BME280;64378;55.596;13.014;2023-02-15T06:31:28;102772.81;;;19.75;35.52
75767;BME280;64378;55.596;13.014;2023-02-15T06:33:54;102761.03;;;19.75;35.58
75767;BME280;64378;55.596;13.014;2023-02-15T06:36:26;102762.09;;;19.74;35.43
75767;BME280;64378;55.596;13.014;2023-02-15T06:38:52;102773.03;;;19.74;35.45
75767;BME280;64378;55.596;13.014;2023-02-15T06:41:17;102767.56;;;19.74;35.45
75767;BME280;64378;55.596;13.014;2023-02-15T06:43:43;102764.19;;;19.72;35.62
75767;BME280;64378;55.596;13.014;2023-02-15T06:46:08;102766.09;;;19.71;35.57
75767;BME280;64378;55.596;13.014;2023-02-15T06:48:33;102764.81;;;19.74;35.59
75767;BME280;64378;55.596;13.014;2023-02-15T06:50:59;102764.19;;;19.72;35.62
75767;BME280;64378;55.596;13.014;2023-02-15T06:53:24;102766.94;;;19.72;35.64
75767;BME280;64378;55.596;13.014;2023-02-15T06:55:49;102761.47;;;19.72;35.65
75767;BME280;64378;55.596;13.014;2023-02-15T06:58:15;102757.03;;;19.71;35.61
75767;BME280;64378;55.596;13.014;2023-02-15T07:00:40;102757.91;;;19.71;35.63
75767;BME280;64378;55.596;13.014;2023-02-15T07:03:06;102758.72;;;19.72;35.80
75767;BME280;64378;55.596;13.014;2023-02-15T07:05:33;102759.56;;;19.72;35.73
75767;BME280;64378;55.596;13.014;2023-02-15T07:07:59;102753.25;;;19.72;35.61
75767;BME280;64378;55.596;13.014;2023-02-15T07:10:25;102751.34;;;19.72;35.67
75767;BME280;64378;55.596;13.014;2023-02-15T07:12:51;102750.50;;;19.72;35.91
75767;BME280;64378;55.596;13.014;2023-02-15T07:15:17;102740.59;;;19.71;35.70
75767;BME280;64378;55.596;13.014;2023-02-15T07:17:43;102746.06;;;19.71;36.09
75767;BME280;64378;55.596;13.014;2023-02-15T07:20:15;102742.72;;;19.69;35.52
75767;BME280;64378;55.596;13.014;2023-02-15T07:22:41;102746.72;;;19.66;35.64
75767;BME280;64378;55.596;13.014;2023-02-15T07:25:09;102743.75;;;19.68;35.54
75767;BME280;64378;55.596;13.014;2023-02-15T07:27:35;102748.59;;;19.66;35.61
75767;BME280;64378;55.596;13.014;2023-02-15T07:30:01;102747.97;;;19.64;35.65
75767;BME280;64378;55.596;13.014;2023-02-15T07:32:28;102737.88;;;19.64;35.60
75767;BME280;64378;55.596;13.014;2023-02-15T07:34:55;102739.75;;;19.64;35.50
75767;BME280;64378;55.596;13.014;2023-02-15T07:37:20;102739.75;;;19.64;35.78
75767;BME280;64378;55.596;13.014;2023-02-15T07:39:45;102739.56;;;19.65;35.90
75767;BME280;64378;55.596;13.014;2023-02-15T07:42:11;102749.25;;;19.68;35.98
75767;BME280;64378;55.596;13.014;2023-02-15T07:44:36;102742.72;;;19.69;35.73
75767;BME280;64378;55.596;13.014;2023-02-15T07:47:02;102743.34;;;19.71;35.83
75767;BME280;64378;55.596;13.014;2023-02-15T07:49:27;102745.88;;;19.72;35.86
75767;BME280;64378;55.596;13.014;2023-02-15T07:51:53;102743.78;;;19.74;35.76
75767;BME280;64378;55.596;13.014;2023-02-15T07:54:18;102739.94;;;19.75;35.90
75767;BME280;64378;55.596;13.014;2023-02-15T07:56:43;102733.41;;;19.76;35.87
75767;BME280;64378;55.596;13.014;2023-02-15T07:59:09;102728.78;;;19.77;35.79
75767;BME280;64378;55.596;13.014;2023-02-15T08:01:36;102734.03;;;19.78;35.78
75767;BME280;64378;55.596;13.014;2023-02-15T08:04:03;102733.00;;;19.79;35.90
75767;BME280;64378;55.596;13.014;2023-02-15T08:06:31;102726.44;;;19.80;35.96
75767;BME280;64378;55.596;13.014;2023-02-15T08:08:57;102722.03;;;19.79;35.85
75767;BME280;64378;55.596;13.014;2023-02-15T08:11:25;102723.53;;;19.82;35.94
75767;BME280;64378;55.596;13.014;2023-02-15T08:14:01;102732.56;;;19.82;35.99
75767;BME280;64378;55.596;13.014;2023-02-15T08:16:35;102729.63;;;19.84;36.02
75767;BME280;64378;55.596;13.014;2023-02-15T08:21:29;102721.19;;;19.85;35.86
75767;BME280;64378;55.596;13.014;2023-02-15T08:23:56;102724.78;;;19.86;36.19
75767;BME280;64378;55.596;13.014;2023-02-15T08:26:22;102722.03;;;19.86;35.99
75767;BME280;64378;55.596;13.014;2023-02-15T08:28:48;102719.88;;;19.88;36.18
75767;BME280;64378;55.596;13.014;2023-02-15T08:31:14;102717.38;;;19.86;36.25
75767;BME280;64378;55.596;13.014;2023-02-15T08:33:41;102715.50;;;19.87;36.14
75767;BME280;64378;55.596;13.014;2023-02-15T08:36:15;102711.66;;;19.88;36.28
75767;BME280;64378;55.596;13.014;2023-02-15T08:38:41;102708.72;;;19.89;35.99
75767;BME280;64378;55.596;13.014;2023-02-15T08:43:48;102701.34;;;19.90;35.92
75767;BME280;64378;55.596;13.014;2023-02-15T08:46:15;102698.59;;;19.90;36.18
75767;BME280;64378;55.596;13.014;2023-02-15T08:48:41;102692.91;;;19.91;35.97
75767;BME280;64378;55.596;13.014;2023-02-15T08:51:28;102696.50;;;19.92;36.12
75767;BME280;64378;55.596;13.014;2023-02-15T08:53:56;102690.19;;;19.91;35.84
75767;BME280;64378;55.596;13.014;2023-02-15T08:56:26;102691.00;;;19.92;36.13
75767;BME280;64378;55.596;13.014;2023-02-15T08:58:53;102676.50;;;19.91;36.15
75767;BME280;64378;55.596;13.014;2023-02-15T09:01:22;102678.16;;;19.92;36.08
75767;BME280;64378;55.596;13.014;2023-02-15T09:03:50;102677.13;;;19.93;36.02
75767;BME280;64378;55.596;13.014;2023-02-15T09:06:19;102674.38;;;19.93;35.96
75767;BME280;64378;55.596;13.014;2023-02-15T09:08:45;102669.72;;;19.94;35.94
75767;BME280;64378;55.596;13.014;2023-02-15T09:11:14;102675.19;;;19.94;36.00
75767;BME280;64378;55.596;13.014;2023-02-15T09:13:49;102669.72;;;19.94;36.00
75767;BME280;64378;55.596;13.014;2023-02-15T09:16:15;102669.50;;;19.95;35.88
75767;BME280;64378;55.596;13.014;2023-02-15T09:18:43;102659.63;;;19.94;36.26
75767;BME280;64378;55.596;13.014;2023-02-15T09:21:14;102658.56;;;19.95;35.88
75767;BME280;64378;55.596;13.014;2023-02-15T09:23:44;102651.16;;;19.96;35.83
75767;BME280;64378;55.596;13.014;2023-02-15T09:26:16;102650.34;;;19.95;36.04
75767;BME280;64378;55.596;13.014;2023-02-15T09:28:42;102652.84;;;19.97;35.93
75767;BME280;64378;55.596;13.014;2023-02-15T09:31:13;102649.09;;;19.98;36.06
75767;BME280;64378;55.596;13.014;2023-02-15T09:33:39;102653.72;;;19.97;36.21
75767;BME280;64378;55.596;13.014;2023-02-15T09:36:17;102651.81;;;19.98;35.98
75767;BME280;64378;55.596;13.014;2023-02-15T09:38:45;102649.94;;;19.98;36.14
75767;BME280;64378;55.596;13.014;2023-02-15T09:49:35;102647.59;;;20.02;35.78
75767;BME280;64378;55.596;13.014;2023-02-15T10:00:49;102649.47;;;20.01;35.65
75767;BME280;64378;55.596;13.014;2023-02-15T10:06:36;102638.50;;;20.01;35.96
75767;BME280;64378;55.596;13.014;2023-02-15T10:15:00;102641.25;;;20.01;35.55
75767;BME280;64378;55.596;13.014;2023-02-15T10:23:38;102634.72;;;20.02;35.52
75767;BME280;64378;55.596;13.014;2023-02-15T10:26:17;102635.56;;;20.03;35.72
75767;BME280;64378;55.596;13.014;2023-02-15T10:28:53;102626.50;;;20.02;35.61
75767;BME280;64378;55.596;13.014;2023-02-15T10:31:27;102632.84;;;20.03;35.85
75767;BME280;64378;55.596;13.014;2023-02-15T10:44:16;102617.00;;;20.05;35.61
75767;BME280;64378;55.596;13.014;2023-02-15T10:57:33;102614.91;;;20.07;35.33
75767;BME280;64378;55.596;13.014;2023-02-15T11:00:14;102602.03;;;20.07;35.50
75767;BME280;64378;55.596;13.014;2023-02-15T11:03:33;102593.78;;;20.07;35.36
75767;BME280;64378;55.596;13.014;2023-02-15T11:06:04;102604.56;;;20.09;35.46
75767;BME280;64378;55.596;13.014;2023-02-15T11:08:35;102594.41;;;20.09;35.20
75767;BME280;64378;55.596;13.014;2023-02-15T11:11:08;102588.94;;;20.09;35.37
75767;BME280;64378;55.596;13.014;2023-02-15T11:13:39;102595.28;;;20.10;35.36
75767;BME280;64378;55.596;13.014;2023-02-15T11:16:14;102594.22;;;20.11;35.36
75767;BME280;64378;55.596;13.014;2023-02-15T11:18:47;102586.81;;;20.11;35.29
75767;BME280;64378;55.596;13.014;2023-02-15T11:21:24;102584.69;;;20.13;35.33
75767;BME280;64378;55.596;13.014;2023-02-15T11:23:51;102576.72;;;20.12;35.26
75767;BME280;64378;55.596;13.014;2023-02-15T11:28:48;102567.88;;;20.10;35.31
75767;BME280;64378;55.596;13.014;2023-02-15T11:31:18;102564.91;;;20.11;35.30
75767;BME280;64378;55.596;13.014;2023-02-15T11:33:47;102555.00;;;20.10;35.77
75767;BME280;64378;55.596;13.014;2023-02-15T11:36:18;102560.28;;;20.12;35.99
75767;BME280;64378;55.596;13.014;2023-02-15T11:38:46;102563.84;;;20.12;36.05
75767;BME280;64378;55.596;13.014;2023-02-15T11:41:20;102557.53;;;20.12;36.01
75767;BME280;64378;55.596;13.014;2023-02-15T11:46:16;102542.75;;;20.13;36.24
75767;BME280;64378;55.596;13.014;2023-02-15T11:48:43;102542.75;;;20.13;36.36
75767;BME280;64378;55.596;13.014;2023-02-15T11:51:12;102541.69;;;20.14;36.18
75767;BME280;64378;55.596;13.014;2023-02-15T11:53:39;102534.31;;;20.14;36.24
75767;BME280;64378;55.596;13.014;2023-02-15T11:56:04;102545.28;;;20.14;36.33
75767;BME280;64378;55.596;13.014;2023-02-15T11:58:41;102536.19;;;20.14;36.43
75767;BME280;64378;55.596;13.014;2023-02-15T12:01:29;102525.22;;;20.14;36.53
75767;BME280;64378;55.596;13.014;2023-02-15T12:04:12;102517.88;;;20.14;36.49
75767;BME280;64378;55.596;13.014;2023-02-15T12:06:49;102525.22;;;20.14;36.15
75767;BME280;64378;55.596;13.014;2023-02-15T12:09:36;102519.75;;;20.14;36.38
75767;BME280;64378;55.596;13.014;2023-02-15T12:14:53;102517.00;;;20.14;36.48
75767;BME280;64378;55.596;13.014;2023-02-15T12:17:25;102517.00;;;20.14;37.01
75767;BME280;64378;55.596;13.014;2023-02-15T12:19:54;102519.53;;;20.15;39.16
75767;BME280;64378;55.596;13.014;2023-02-15T12:22:25;102515.75;;;20.16;42.96
75767;BME280;64378;55.596;13.014;2023-02-15T12:24:54;102519.09;;;20.18;45.76
75767;BME280;64378;55.596;13.014;2023-02-15T12:27:24;102518.88;;;20.20;46.73
75767;BME280;64378;55.596;13.014;2023-02-15T12:29:55;102515.91;;;20.21;46.20
75767;BME280;64378;55.596;13.014;2023-02-15T12:32:34;102501.16;;;20.22;46.47
75767;BME280;64378;55.596;13.014;2023-02-15T12:35:08;102500.91;;;20.24;46.90
75767;BME280;64378;55.596;13.014;2023-02-15T12:37:34;102500.91;;;20.24;47.36
75767;BME280;64378;55.596;13.014;2023-02-15T12:40:19;102505.09;;;20.26;47.22
75767;BME280;64378;55.596;13.014;2023-02-15T12:42:45;102498.78;;;20.26;46.95
75767;BME280;64378;55.596;13.014;2023-02-15T12:45:28;102501.31;;;20.27;46.71
75767;BME280;64378;55.596;13.014;2023-02-15T12:50:39;102498.56;;;20.27;45.90
75767;BME280;64378;55.596;13.014;2023-02-15T12:53:17;102494.13;;;20.26;45.93
75767;BME280;64378;55.596;13.014;2023-02-15T12:55:59;102489.50;;;20.27;45.58
75767;BME280;64378;55.596;13.014;2023-02-15T12:58:33;102487.59;;;20.27;45.01
75767;BME280;64378;55.596;13.014;2023-02-15T13:03:56;102485.91;;;20.26;44.57
75767;BME280;64378;55.596;13.014;2023-02-15T13:06:22;102475.19;;;20.25;44.22
75767;BME280;64378;55.596;13.014;2023-02-15T13:08:58;102473.06;;;20.27;43.80
75767;BME280;64378;55.596;13.014;2023-02-15T13:11:31;102457.69;;;20.26;43.71
75767;BME280;64378;55.596;13.014;2023-02-15T13:14:02;102451.38;;;20.25;43.50
75767;BME280;64378;55.596;13.014;2023-02-15T13:16:37;102451.38;;;20.25;43.04
75767;BME280;64378;55.596;13.014;2023-02-15T13:19:12;102458.75;;;20.25;42.84
75767;BME280;64378;55.596;13.014;2023-02-15T13:21:43;102454.13;;;20.25;42.70
75767;BME280;64378;55.596;13.014;2023-02-15T13:26:43;102446.97;;;20.24;42.44
75767;BME280;64378;55.596;13.014;2023-02-15T13:29:25;102445.28;;;20.23;41.98
75767;BME280;64378;55.596;13.014;2023-02-15T13:31:53;102440.63;;;20.24;42.05
75767;BME280;64378;55.596;13.014;2023-02-15T13:34:33;102443.34;;;20.24;41.80
75767;BME280;64378;55.596;13.014;2023-02-15T13:37:32;102439.78;;;20.23;41.64
75767;BME280;64378;55.596;13.014;2023-02-15T13:40:07;102438.94;;;20.23;41.49
75767;BME280;64378;55.596;13.014;2023-02-15T13:42:40;102430.72;;;20.23;41.17
75767;BME280;64378;55.596;13.014;2023-02-15T13:48:50;102424.16;;;20.24;40.99
75767;BME280;64378;55.596;13.014;2023-02-15T13:51:19;102414.28;;;20.23;41.17
75767;BME280;64378;55.596;13.014;2023-02-15T14:00:32;102404.38;;;20.22;40.48
75767;BME280;64378;55.596;13.014;2023-02-15T14:08:08;102397.00;;;20.22;40.28
75767;BME280;64378;55.596;13.014;2023-02-15T14:11:01;102386.25;;;20.21;40.19
75767;BME280;64378;55.596;13.014;2023-02-15T14:13:51;102389.84;;;20.21;40.11
75767;BME280;64378;55.596;13.014;2023-02-15T14:16:31;102384.34;;;20.21;39.92
75767;BME280;64378;55.596;13.014;2023-02-15T14:21:51;102387.31;;;20.20;39.87
75767;BME280;64378;55.596;13.014;2023-02-15T14:24:27;102384.34;;;20.21;39.64
75767;BME280;64378;55.596;13.014;2023-02-15T14:29:51;102374.22;;;20.22;39.10
75767;BME280;64378;55.596;13.014;2023-02-15T14:32:38;102370.84;;;20.20;38.94
75767;BME280;64378;55.596;13.014;2023-02-15T14:35:13;102370.25;;;20.18;39.02
75767;BME280;64378;55.596;13.014;2023-02-15T14:40:19;102364.75;;;20.18;38.98
75767;BME280;64378;55.596;13.014;2023-02-15T14:46:25;102375.09;;;20.16;38.66
75767;BME280;64378;55.596;13.014;2023-02-15T14:48:53;102365.81;;;20.17;38.79
75767;BME280;64378;55.596;13.014;2023-02-15T14:54:03;102366.28;;;20.14;38.62
75767;BME280;64378;55.596;13.014;2023-02-15T14:56:29;102365.44;;;20.13;38.62
75767;BME280;64378;55.596;13.014;2023-02-15T14:59:00;102372.84;;;20.13;38.78
75767;BME280;64378;55.596;13.014;2023-02-15T15:01:33;102365.44;;;20.13;38.56
75767;BME280;64378;55.596;13.014;2023-02-15T15:04:04;102379.16;;;20.13;38.59